Terminal Aerodrome Forecast
Issued by NWS Wilmington, OH

Current Version | Previous Version | Graphics & Text | Print | Product List | Glossary Off
Versions: 1 2 3 4 5 6 7 8 9 10 11 12 13 14 15 16 17 18 19

000
FTUS41 KILN 010530
TAFCMH
TAF
KCMH 010530Z 0106/0206 21003KT P6SM SKC
     FM010800 00000KT 4SM BR SKC
      TEMPO 0110/0112 2SM BR
     FM011300 24003KT P6SM SKC
     FM011800 25006KT P6SM BKN040
     FM020100 VRB03KT P6SM FEW050=

USA.gov is the U.S. government's official web portal to all federal, state and local government web resources and services.